createdAt,value
2019-05-06T10:28:43.572Z,1.70
2019-05-06T10:29:43.534Z,1.00
2019-05-06T10:30:43.526Z,1.70
2019-05-06T10:31:43.510Z,1.10
2019-05-06T10:32:43.501Z,1.20
2019-05-06T10:33:43.513Z,1.40
2019-05-06T10:34:43.665Z,2.30
2019-05-06T10:35:43.466Z,1.10
2019-05-06T10:36:43.537Z,1.30
2019-05-06T10:37:52.640Z,2.60
2019-05-06T10:38:43.460Z,1.10
2019-05-06T10:39:43.420Z,1.60
2019-05-06T10:40:57.297Z,1.30
2019-05-06T10:41:44.399Z,1.20
2019-05-06T10:42:43.408Z,1.70
2019-05-06T10:43:43.410Z,1.10
2019-05-06T10:44:43.363Z,1.60
2019-05-06T10:45:43.377Z,1.10
2019-05-06T10:46:43.341Z,1.20
2019-05-06T10:47:43.365Z,2.90
2019-05-06T10:48:43.339Z,1.00
2019-05-06T10:49:43.327Z,1.00
2019-05-06T10:50:43.303Z,1.00
2019-05-06T10:51:43.305Z,1.00
2019-05-06T10:52:43.285Z,1.30
2019-05-06T10:53:43.325Z,1.40
2019-05-06T10:54:43.364Z,1.00
2019-05-06T10:55:43.422Z,1.10
2019-05-06T10:56:52.908Z,1.60
2019-05-06T10:57:44.273Z,1.00
2019-05-06T10:58:44.024Z,1.30
2019-05-06T10:59:43.201Z,2.60
2019-05-06T11:00:43.218Z,1.00
2019-05-06T11:01:43.171Z,1.20
2019-05-06T11:02:43.209Z,1.00
2019-05-06T11:03:43.162Z,1.40
2019-05-06T11:04:43.187Z,1.50
2019-05-06T11:05:43.409Z,0.90
2019-05-06T11:06:43.209Z,1.20
2019-05-06T11:07:43.253Z,0.90
2019-05-06T11:08:54.147Z,0.90
2019-05-06T11:09:43.146Z,1.30
2019-05-06T11:10:45.454Z,0.90
2019-05-06T11:11:43.065Z,1.20
2019-05-06T11:12:43.166Z,0.80
2019-05-06T11:13:43.049Z,1.30
2019-05-06T11:14:43.033Z,0.90
2019-05-06T11:15:43.516Z,0.90
2019-05-06T11:16:43.009Z,1.20
2019-05-06T11:17:43.573Z,1.00
2019-05-06T11:18:43.033Z,1.20
2019-05-06T11:19:42.977Z,1.00
2019-05-06T11:20:43.895Z,1.40
2019-05-06T11:21:45.105Z,1.10
2019-05-06T11:22:43.642Z,1.00
2019-05-06T11:23:42.943Z,2.20
2019-05-06T11:24:42.976Z,1.50
2019-05-06T11:25:43.279Z,1.20
2019-05-06T11:26:43.153Z,1.70
2019-05-06T11:27:45.183Z,1.10
2019-05-06T11:28:42.987Z,0.90
2019-05-06T11:29:43.517Z,1.30
2019-05-06T11:30:42.914Z,1.50
2019-05-06T11:31:43.355Z,1.20
2019-05-06T11:32:44.414Z,0.90
2019-05-06T11:33:42.822Z,0.90
2019-05-06T11:34:42.831Z,1.40
2019-05-06T11:35:43.149Z,1.20
2019-05-06T11:36:42.841Z,1.20
2019-05-06T11:37:54.226Z,0.90
2019-05-06T11:38:43.258Z,1.00
2019-05-06T11:39:43.133Z,1.00
2019-05-06T11:40:42.769Z,1.50
2019-05-06T11:41:59.592Z,1.60
2019-05-06T11:42:43.893Z,2.60
2019-05-06T11:43:42.957Z,1.10
2019-05-06T11:44:44.132Z,1.10
2019-05-06T11:45:42.858Z,1.00
2019-05-06T11:46:43.023Z,0.90
2019-05-06T11:47:42.688Z,1.40
2019-05-06T11:48:43.245Z,1.00
2019-05-06T11:49:44.171Z,1.20
2019-05-06T11:50:42.774Z,1.70
2019-05-06T11:51:43.634Z,1.00
2019-05-06T11:52:43.428Z,2.60
2019-05-06T11:53:42.645Z,0.80
2019-05-06T11:54:42.594Z,1.20
2019-05-06T11:55:42.642Z,0.70
2019-05-06T11:56:50.691Z,1.30
2019-05-06T11:57:44.610Z,1.00
2019-05-06T11:58:43.101Z,1.60
2019-05-06T11:59:43.382Z,1.00
2019-05-06T12:00:44.169Z,0.90
2019-05-06T12:01:43.458Z,1.00
2019-05-06T12:02:48.073Z,1.00
2019-05-06T12:03:43.491Z,2.30
2019-05-06T12:04:43.341Z,1.10
2019-05-06T12:05:42.857Z,1.10
2019-05-06T12:06:42.548Z,1.10
2019-05-06T12:07:43.461Z,0.90
2019-05-06T12:09:56.921Z,1.30
2019-05-06T12:10:56.872Z,1.00
2019-05-06T12:11:56.841Z,0.90
2019-05-06T12:12:56.842Z,1.90
2019-05-06T12:13:56.831Z,1.20
2019-05-06T12:14:56.815Z,1.30
2019-05-06T12:15:56.805Z,1.30
2019-05-06T12:16:56.833Z,1.10
2019-05-06T12:17:56.801Z,1.40
2019-05-06T12:18:59.644Z,0.90
2019-05-06T12:19:56.755Z,0.80
2019-05-06T12:21:08.279Z,0.90
2019-05-06T12:21:57.783Z,1.10
2019-05-06T12:22:56.766Z,0.80
2019-05-06T12:23:56.720Z,1.10
2019-05-06T12:24:56.712Z,0.90
2019-05-06T12:25:56.754Z,0.70
2019-05-06T12:26:56.675Z,1.10
2019-05-06T12:27:56.674Z,1.00
2019-05-06T12:28:56.702Z,0.90
2019-05-06T12:29:56.649Z,1.10
2019-05-06T12:30:56.643Z,1.10
2019-05-06T12:31:56.621Z,1.10
2019-05-06T12:32:56.640Z,0.90
2019-05-06T12:33:56.630Z,1.00
2019-05-06T12:34:56.644Z,0.90
2019-05-06T12:35:56.584Z,0.70
2019-05-06T12:36:56.579Z,0.80
2019-05-06T12:37:56.556Z,1.10
2019-05-06T12:38:56.564Z,2.20
2019-05-06T12:40:06.941Z,1.00
2019-05-06T12:40:59.641Z,0.90
2019-05-06T12:41:56.520Z,0.80
2019-05-06T12:42:56.509Z,1.20
2019-05-06T12:43:57.412Z,0.80
2019-05-06T12:44:56.494Z,1.10
2019-05-06T12:45:56.482Z,0.70
2019-05-06T12:46:59.649Z,0.70
2019-05-06T12:47:56.461Z,0.80
2019-05-06T12:48:56.442Z,1.00
2019-05-06T12:49:56.450Z,1.10
2019-05-06T12:50:56.518Z,0.70
2019-05-06T12:51:56.405Z,0.70
2019-05-06T12:52:57.904Z,1.10
2019-05-06T12:53:56.414Z,0.80
2019-05-06T12:55:14.581Z,0.90
2019-05-06T12:55:57.408Z,0.90
2019-05-06T12:56:56.348Z,0.80
2019-05-06T12:57:56.357Z,1.00
2019-05-06T12:58:56.343Z,1.30
2019-05-06T12:59:56.342Z,0.80
2019-05-06T13:00:56.320Z,1.00
2019-05-06T13:01:56.355Z,0.70
2019-05-06T13:02:56.289Z,1.20
2019-05-06T13:03:56.273Z,0.80
2019-05-06T13:05:00.712Z,1.50
2019-05-06T13:05:57.277Z,1.70
2019-05-06T13:06:56.301Z,1.00
2019-05-06T13:07:56.234Z,0.90
2019-05-06T13:09:05.301Z,0.90
2019-05-06T13:09:56.253Z,1.50
2019-05-06T13:10:56.245Z,0.80
2019-05-06T13:11:56.215Z,0.90
2019-05-06T13:12:56.211Z,1.20
2019-05-06T13:14:00.350Z,0.80
2019-05-06T13:14:56.172Z,1.40
2019-05-06T13:15:56.144Z,0.90
2019-05-06T13:16:56.140Z,1.10
2019-05-06T13:17:56.131Z,1.00
2019-05-06T13:18:56.150Z,1.10
2019-05-06T13:19:56.122Z,1.10
2019-05-06T13:20:56.095Z,1.40
2019-05-06T13:21:56.082Z,0.80
2019-05-06T13:22:56.076Z,0.90
2019-05-06T13:23:56.065Z,1.30
2019-05-06T13:24:56.089Z,1.20
2019-05-06T13:25:56.034Z,1.10
2019-05-06T13:26:58.799Z,0.90
2019-05-06T13:27:56.019Z,1.80
2019-05-06T13:28:56.007Z,1.10
2019-05-06T13:29:56.063Z,1.00
2019-05-06T13:31:11.859Z,1.10
2019-05-06T13:31:56.968Z,1.40
2019-05-06T13:32:55.963Z,0.90
2019-05-06T13:33:56.229Z,0.90
2019-05-06T13:34:59.017Z,1.00
2019-05-06T13:35:55.929Z,1.00
2019-05-06T13:36:55.957Z,1.30
2019-05-06T13:37:55.908Z,1.60
2019-05-06T13:39:09.477Z,1.10
2019-05-06T13:40:09.073Z,1.70
2019-05-06T13:40:57.622Z,0.80
2019-05-06T13:41:55.924Z,2.50
2019-05-06T13:42:55.864Z,1.10
2019-05-06T13:43:55.859Z,1.00
2019-05-06T13:44:55.860Z,1.60
2019-05-06T13:45:55.821Z,1.00
2019-05-06T13:46:55.819Z,1.10
2019-05-06T13:47:55.826Z,1.00
2019-05-06T13:48:57.591Z,2.30
2019-05-06T13:49:55.788Z,1.10
2019-05-06T13:50:55.771Z,0.90
2019-05-06T13:51:55.748Z,1.20
2019-05-06T13:53:08.279Z,2.20
2019-05-06T13:53:56.734Z,1.00
2019-05-06T13:54:55.737Z,0.80
2019-05-06T13:55:55.714Z,1.00
2019-05-06T13:56:55.698Z,1.80
2019-05-06T13:57:55.690Z,0.90
2019-05-06T13:58:55.672Z,0.80
2019-05-06T13:59:55.714Z,1.10
2019-05-06T14:00:55.653Z,1.10
2019-05-06T14:01:55.683Z,0.90
2019-05-06T14:02:55.636Z,1.00
2019-05-06T14:03:55.621Z,1.00
2019-05-06T14:04:55.606Z,1.10
2019-05-06T14:05:55.627Z,0.80
2019-05-06T14:06:55.581Z,2.00
2019-05-06T14:07:55.581Z,2.40
2019-05-06T14:08:55.561Z,1.80
2019-05-06T14:09:55.577Z,0.90
2019-05-06T14:11:07.548Z,0.90
2019-05-06T14:11:55.529Z,1.90
2019-05-06T14:12:55.514Z,0.90
2019-05-06T14:14:04.036Z,1.40
2019-05-06T14:14:55.580Z,1.40
2019-05-06T14:15:55.609Z,1.00
2019-05-06T14:16:55.481Z,1.00
2019-05-06T14:17:55.469Z,0.90
2019-05-06T14:18:55.451Z,1.20
2019-05-06T14:19:55.444Z,0.80
2019-05-06T14:20:55.437Z,1.40
2019-05-06T14:21:55.471Z,0.90
2019-05-06T14:22:55.406Z,1.40
2019-05-06T14:23:55.398Z,0.90
2019-05-06T14:24:55.383Z,0.70
2019-05-06T14:25:55.380Z,2.20
2019-05-06T14:26:58.627Z,1.80
2019-05-06T14:27:55.362Z,1.00
2019-05-06T14:28:55.344Z,1.10
2019-05-06T14:29:55.332Z,1.20
2019-05-06T14:30:55.331Z,1.40
2019-05-06T14:31:55.306Z,1.30
2019-05-06T14:32:55.339Z,1.00
2019-05-06T14:33:55.287Z,1.40
2019-05-06T14:34:55.282Z,1.10
2019-05-06T14:35:55.264Z,1.20
2019-05-06T14:36:55.249Z,0.80
2019-05-06T14:37:55.268Z,1.40
2019-05-06T14:38:55.333Z,0.90
2019-05-06T14:39:59.249Z,1.00
2019-05-06T14:40:55.212Z,1.10
2019-05-06T14:41:55.193Z,1.10
2019-05-06T14:42:55.182Z,1.40
2019-05-06T14:43:55.182Z,0.90
2019-05-06T14:45:07.523Z,2.00
2019-05-06T14:45:55.180Z,2.60
2019-05-06T14:46:55.153Z,1.60
2019-05-06T14:47:55.139Z,1.20
2019-05-06T14:48:55.165Z,1.30
2019-05-06T14:49:55.117Z,1.50
2019-05-06T14:50:57.221Z,0.90
2019-05-06T14:51:55.099Z,1.50
2019-05-06T14:52:55.077Z,0.90
2019-05-06T14:53:55.065Z,1.70
2019-05-06T14:54:55.117Z,1.20
2019-05-06T14:55:55.043Z,1.10
2019-05-06T14:56:55.054Z,1.30
2019-05-06T14:57:55.021Z,1.30
2019-05-06T14:58:55.006Z,1.40
2019-05-06T14:59:55.881Z,1.20
2019-05-06T15:00:55.041Z,1.10
2019-05-06T15:01:54.980Z,1.00
2019-05-06T15:02:54.978Z,1.20
2019-05-06T15:03:54.954Z,1.30
2019-05-06T15:04:54.940Z,1.00
2019-05-06T15:05:54.962Z,2.30
2019-05-06T15:06:54.922Z,1.00
2019-05-06T15:07:54.909Z,1.30
2019-05-06T15:08:54.908Z,1.10
2019-05-06T15:10:07.911Z,1.40
2019-05-06T15:10:55.914Z,1.20
2019-05-06T15:11:54.862Z,1.20
2019-05-06T15:12:54.851Z,1.20
2019-05-06T15:13:54.837Z,1.30
2019-05-06T15:14:54.840Z,1.10
2019-05-06T15:16:07.647Z,1.20
2019-05-06T15:16:54.835Z,1.20
2019-05-06T15:17:54.851Z,1.50
2019-05-06T15:18:54.891Z,1.30
2019-05-06T15:19:54.782Z,1.30
2019-05-06T15:20:54.761Z,1.20
2019-05-06T15:21:54.748Z,1.10
2019-05-06T15:22:55.615Z,1.10
2019-05-06T15:23:54.755Z,1.10
2019-05-06T15:24:54.728Z,1.10
2019-05-06T15:25:54.718Z,1.60
2019-05-06T15:26:54.699Z,0.80
2019-05-06T15:27:54.691Z,1.10
2019-05-06T15:28:54.716Z,1.10
2019-05-06T15:29:54.666Z,1.50
2019-05-06T15:30:54.655Z,1.20
2019-05-06T15:31:54.645Z,1.60
2019-05-06T15:32:54.630Z,1.30
2019-05-06T15:33:54.623Z,1.10
2019-05-06T15:34:56.255Z,1.40
2019-05-06T15:35:54.598Z,2.00
2019-05-06T15:36:54.592Z,1.40
2019-05-06T15:37:54.582Z,3.10
2019-05-06T15:38:54.569Z,1.30
2019-05-06T15:39:54.552Z,1.50
2019-05-06T15:40:54.586Z,0.90
2019-05-06T15:41:54.540Z,1.80
2019-05-06T15:42:54.528Z,1.30
2019-05-06T15:43:54.513Z,1.20
2019-05-06T15:44:54.516Z,1.20
2019-05-06T15:45:54.624Z,1.60
2019-05-06T15:47:07.154Z,2.20
2019-05-06T15:48:02.686Z,1.50
2019-05-06T15:49:03.002Z,1.00
2019-05-06T15:49:54.451Z,1.20
2019-05-06T15:50:54.442Z,1.30
2019-05-06T15:51:54.478Z,1.30
2019-05-06T15:52:54.549Z,1.30
2019-05-06T15:53:54.498Z,0.80
2019-05-06T15:54:55.174Z,0.90
2019-05-06T15:55:54.385Z,1.10
2019-05-06T15:56:54.379Z,0.90
2019-05-06T15:57:54.393Z,0.90
2019-05-06T15:58:54.364Z,2.00
2019-05-06T15:59:54.341Z,1.00
2019-05-06T16:00:54.333Z,1.00
2019-05-06T16:01:54.384Z,1.10
2019-05-06T16:02:54.301Z,1.10
2019-05-06T16:03:54.300Z,3.10
2019-05-06T16:04:54.294Z,1.20
2019-05-06T16:05:55.245Z,1.30
2019-05-06T16:06:54.260Z,1.00
2019-05-06T16:07:54.275Z,0.80
2019-05-06T16:08:54.349Z,1.20
2019-05-06T16:09:55.411Z,1.30
2019-05-06T16:10:58.431Z,2.60
2019-05-06T16:11:54.217Z,1.00
2019-05-06T16:12:54.221Z,0.80
2019-05-06T16:13:54.204Z,1.20
2019-05-06T16:14:54.231Z,1.10
2019-05-06T16:15:54.167Z,1.80
2019-05-06T16:16:54.182Z,1.10
2019-05-06T16:17:54.150Z,1.50
2019-05-06T16:18:54.132Z,1.30
2019-05-06T16:20:06.747Z,1.00
2019-05-06T16:20:57.156Z,1.10
2019-05-06T16:21:54.112Z,1.00
2019-05-06T16:22:54.150Z,1.30
2019-05-06T16:23:55.011Z,0.80
2019-05-06T16:24:54.063Z,0.90
2019-05-06T16:25:54.072Z,1.30
2019-05-06T16:26:54.081Z,1.20
2019-05-06T16:27:54.843Z,2.90
2019-05-06T16:28:54.026Z,1.10
2019-05-06T16:29:54.021Z,1.00
2019-05-06T16:30:54.001Z,1.40
2019-05-06T16:31:54.019Z,2.10
2019-05-06T16:32:54.250Z,1.40
2019-05-06T16:33:53.975Z,1.30
2019-05-06T16:34:53.962Z,1.30
2019-05-06T16:35:53.948Z,1.90
2019-05-06T16:36:53.937Z,0.90
2019-05-06T16:37:53.922Z,1.30
2019-05-06T16:38:54.788Z,0.80
2019-05-06T16:39:54.643Z,1.10
2019-05-06T16:41:09.062Z,1.10
2019-05-06T16:41:54.872Z,0.90
2019-05-06T16:42:54.627Z,0.90
2019-05-06T16:43:53.860Z,0.70
2019-05-06T16:44:53.887Z,1.00
2019-05-06T16:45:53.845Z,2.50
2019-05-06T16:46:53.841Z,1.00
2019-05-06T16:47:53.827Z,0.90
2019-05-06T16:48:53.801Z,0.90
2019-05-06T16:49:53.786Z,1.30
2019-05-06T16:51:06.801Z,0.90
2019-05-06T16:51:54.021Z,0.80
2019-05-06T16:52:53.766Z,0.90
2019-05-06T16:53:53.826Z,1.50
2019-05-06T16:54:53.792Z,1.00
2019-05-06T16:55:55.532Z,0.90
2019-05-06T16:56:53.748Z,1.20
2019-05-06T16:57:53.720Z,0.90
2019-05-06T16:58:53.715Z,0.90
2019-05-06T16:59:53.673Z,1.00
2019-05-06T17:00:53.669Z,2.90
2019-05-06T17:01:53.650Z,0.80
2019-05-06T17:02:57.914Z,2.50
2019-05-06T17:03:54.637Z,0.90
2019-05-06T17:04:53.619Z,0.90
2019-05-06T17:05:53.607Z,1.30
2019-05-06T17:06:53.602Z,1.60
2019-05-06T17:07:53.625Z,1.10
2019-05-06T17:08:53.583Z,2.10
2019-05-06T17:09:53.563Z,0.90
2019-05-06T17:10:53.592Z,0.90
2019-05-06T17:11:53.545Z,1.00
2019-05-06T17:12:53.765Z,1.60
2019-05-06T17:13:53.559Z,1.90
2019-05-06T17:14:53.515Z,3.90
2019-05-06T17:15:53.496Z,2.40
2019-05-06T17:16:53.493Z,2.60
2019-05-06T17:17:53.477Z,2.20
2019-05-06T17:18:56.484Z,2.40
2019-05-06T17:19:53.458Z,2.10
2019-05-06T17:20:53.445Z,1.70
2019-05-06T17:22:06.505Z,1.40
2019-05-06T17:22:53.444Z,1.90
2019-05-06T17:23:53.427Z,1.50
2019-05-06T17:24:53.436Z,1.50
2019-05-06T17:25:53.428Z,1.40
2019-05-06T17:26:56.183Z,1.60
2019-05-06T17:27:53.367Z,1.50
2019-05-06T17:28:53.391Z,1.50
2019-05-06T17:29:53.354Z,1.20
2019-05-06T17:30:53.730Z,1.30
2019-05-06T17:31:53.325Z,1.10
2019-05-06T17:32:53.314Z,1.30
2019-05-06T17:33:53.297Z,1.30
2019-05-06T17:34:56.949Z,1.00
2019-05-06T17:35:53.319Z,1.10
2019-05-06T17:36:53.644Z,1.20
2019-05-06T17:37:53.250Z,1.40
2019-05-06T17:38:53.240Z,1.40
2019-05-06T17:40:06.980Z,0.80
2019-05-06T17:40:54.311Z,1.20
2019-05-06T17:41:53.216Z,0.90
2019-05-06T17:42:53.471Z,1.50
2019-05-06T17:43:53.191Z,1.10
2019-05-06T17:44:53.408Z,0.90
2019-05-06T17:46:01.346Z,1.30
2019-05-06T17:46:54.199Z,1.20
2019-05-06T17:47:53.154Z,1.30
2019-05-06T17:48:53.141Z,1.50
2019-05-06T17:49:53.126Z,2.40
2019-05-06T17:50:53.110Z,1.30
2019-05-06T17:51:53.099Z,1.10
2019-05-06T17:53:06.402Z,1.30
2019-05-06T17:53:53.099Z,1.30
2019-05-06T17:54:53.085Z,1.10
2019-05-06T17:55:53.068Z,1.30
2019-05-06T17:56:53.052Z,1.20
2019-05-06T17:57:53.088Z,1.60
2019-05-06T17:58:53.402Z,1.60
2019-05-06T17:59:53.024Z,1.40
2019-05-06T18:00:53.010Z,1.30
2019-05-06T18:01:53.298Z,0.90
2019-05-06T18:02:53.009Z,2.00
2019-05-06T18:03:52.970Z,1.00
2019-05-06T18:04:53.388Z,1.10
2019-05-06T18:05:52.949Z,1.40
2019-05-06T18:06:52.939Z,1.00
2019-05-06T18:07:52.931Z,1.20
2019-05-06T18:08:52.947Z,1.80
2019-05-06T18:09:52.930Z,1.30
2019-05-06T18:10:52.903Z,3.10
2019-05-06T18:11:58.882Z,1.50
2019-05-06T18:12:53.884Z,0.90
2019-05-06T18:13:52.871Z,1.00
2019-05-06T18:14:53.536Z,1.00
2019-05-06T18:15:53.122Z,1.20
2019-05-06T18:16:53.786Z,1.50
2019-05-06T18:17:52.819Z,1.30
2019-05-06T18:18:52.812Z,1.50
2019-05-06T18:19:52.798Z,1.40
2019-05-06T18:20:52.936Z,1.30
2019-05-06T18:21:52.978Z,1.00
2019-05-06T18:22:52.768Z,1.30
2019-05-06T18:24:04.061Z,1.40
2019-05-06T18:24:53.393Z,1.50
2019-05-06T18:25:53.312Z,1.70
2019-05-06T18:26:52.981Z,1.50
2019-05-06T18:27:52.748Z,1.00
2019-05-06T18:28:52.882Z,1.40
2019-05-06T18:29:53.295Z,1.20
2019-05-06T18:30:52.675Z,1.80
2019-05-06T18:31:52.667Z,1.10
2019-05-06T18:32:52.708Z,1.40
2019-05-06T18:33:52.898Z,1.30
2019-05-06T18:34:52.810Z,1.20
2019-05-06T18:35:53.625Z,1.60
2019-05-06T18:36:52.643Z,1.40
2019-05-06T18:37:52.602Z,1.50
2019-05-06T18:38:52.767Z,1.40
2019-05-06T18:39:53.138Z,1.60
2019-05-06T18:40:52.939Z,1.90
2019-05-06T18:41:53.231Z,1.70
2019-05-06T18:42:52.604Z,2.90
2019-05-06T18:43:53.693Z,1.90
2019-05-06T18:44:52.534Z,3.80
2019-05-06T18:45:52.512Z,2.10
2019-05-06T18:46:53.173Z,2.20
2019-05-06T18:47:53.135Z,2.30
2019-05-06T18:48:52.675Z,2.70
2019-05-06T18:49:52.577Z,3.10
2019-05-06T18:50:52.464Z,3.20
2019-05-06T18:51:54.251Z,3.70
2019-05-06T18:52:53.006Z,3.00
2019-05-06T18:53:52.643Z,3.00
2019-05-06T18:55:04.393Z,4.10
2019-05-06T18:55:52.432Z,3.80
2019-05-06T18:56:52.397Z,3.30
2019-05-06T18:57:52.904Z,3.20
2019-05-06T18:58:53.228Z,4.40
2019-05-06T18:59:53.359Z,3.10
2019-05-06T19:00:53.118Z,3.40
2019-05-06T19:01:53.862Z,4.90
2019-05-06T19:02:52.421Z,5.20
2019-05-06T19:03:52.595Z,3.70
2019-05-06T19:04:52.423Z,3.50
2019-05-06T19:05:52.977Z,6.20
2019-05-06T19:07:08.805Z,3.00
2019-05-06T19:07:53.271Z,5.80
2019-05-06T19:08:52.882Z,3.60
2019-05-06T19:09:52.836Z,6.00
2019-05-06T19:10:53.214Z,2.80
2019-05-06T19:11:54.417Z,1.90
2019-05-06T19:12:52.792Z,3.60
2019-05-06T19:13:52.667Z,2.60
2019-05-06T19:14:52.646Z,3.40
2019-05-06T19:15:52.741Z,2.60
2019-05-06T19:16:54.979Z,4.90
2019-05-06T19:17:52.737Z,2.90
2019-05-06T19:18:52.443Z,3.50
2019-05-06T19:19:52.192Z,4.10
2019-05-06T19:20:53.048Z,4.90
2019-05-06T19:21:52.458Z,2.40
2019-05-06T19:22:53.560Z,2.10
2019-05-06T19:23:54.819Z,2.40
2019-05-06T19:24:52.221Z,3.00
2019-05-06T19:26:04.047Z,2.60
2019-05-06T19:26:59.596Z,1.90
2019-05-06T19:27:53.133Z,2.50
2019-05-06T19:28:52.659Z,3.00
2019-05-06T19:29:54.297Z,2.80
2019-05-06T19:30:54.172Z,4.60
2019-05-06T19:31:52.252Z,4.30
2019-05-06T19:32:53.202Z,3.10
2019-05-06T19:33:52.669Z,3.60
2019-05-06T19:34:52.971Z,3.60
2019-05-06T19:35:52.374Z,3.20
2019-05-06T19:36:52.891Z,2.80
2019-05-06T19:37:51.948Z,2.70
2019-05-06T19:38:51.938Z,3.20
2019-05-06T19:39:52.633Z,2.70
2019-05-06T19:40:52.389Z,4.60
2019-05-06T19:41:51.900Z,4.20
2019-05-06T19:42:53.324Z,3.40
2019-05-06T19:43:52.373Z,5.70
2019-05-06T19:44:52.918Z,3.50
2019-05-06T19:45:53.054Z,2.00
2019-05-06T19:46:53.222Z,3.30
2019-05-06T19:47:52.336Z,1.80
2019-05-06T19:48:52.450Z,4.10
2019-05-06T19:49:53.191Z,5.40
2019-05-06T19:50:52.349Z,2.90
2019-05-06T19:51:52.333Z,3.00
2019-05-06T19:52:52.841Z,3.30
2019-05-06T19:53:51.791Z,4.10
2019-05-06T19:54:52.095Z,2.90
2019-05-06T19:55:53.005Z,5.90
2019-05-06T19:56:52.622Z,7.60
2019-05-06T19:58:03.982Z,9.60
2019-05-06T19:58:52.581Z,7.60
2019-05-06T19:59:52.211Z,8.70
2019-05-06T20:00:52.828Z,9.10
2019-05-06T20:01:52.449Z,5.50
2019-05-06T20:02:52.226Z,5.60
2019-05-06T20:03:52.618Z,5.80
2019-05-06T20:04:53.173Z,5.40
2019-05-06T20:05:54.228Z,6.10
2019-05-06T20:06:52.299Z,4.60
2019-05-06T20:07:52.188Z,5.40
2019-05-06T20:08:52.884Z,3.70
2019-05-06T20:09:52.194Z,3.00
2019-05-06T20:10:52.860Z,6.50
2019-05-06T20:11:51.978Z,4.20
2019-05-06T20:13:01.472Z,3.90
2019-05-06T20:13:52.690Z,3.00
2019-05-06T20:14:52.475Z,2.50
2019-05-06T20:15:52.108Z,4.20
2019-05-06T20:16:52.886Z,3.40
2019-05-06T20:17:52.074Z,4.30
2019-05-06T20:18:52.596Z,7.90
2019-05-06T20:19:51.957Z,4.90
2019-05-06T20:20:52.809Z,3.20
2019-05-06T20:21:52.698Z,4.00
2019-05-06T20:22:51.467Z,7.30
2019-05-06T20:23:52.656Z,4.30
2019-05-06T20:24:52.046Z,6.60
2019-05-06T20:25:51.935Z,7.00
2019-05-06T20:26:52.692Z,3.10
2019-05-06T20:27:52.626Z,5.70
2019-05-06T20:29:03.489Z,5.60
2019-05-06T20:29:52.273Z,5.10
2019-05-06T20:30:52.916Z,4.20
2019-05-06T20:31:53.412Z,6.40
2019-05-06T20:32:52.157Z,5.90
2019-05-06T20:33:52.837Z,4.20
2019-05-06T20:34:51.328Z,3.70
2019-05-06T20:35:52.577Z,4.90
2019-05-06T20:36:52.819Z,3.30
2019-05-06T20:37:53.403Z,2.30
2019-05-06T20:38:51.319Z,2.90
2019-05-06T20:39:51.290Z,2.50
2019-05-06T20:40:51.273Z,3.00
2019-05-06T20:41:51.264Z,1.80
2019-05-06T20:42:51.244Z,4.10
2019-05-06T20:43:51.266Z,4.00
2019-05-06T20:44:52.461Z,3.70
2019-05-06T20:45:52.174Z,2.60
2019-05-06T20:46:52.706Z,1.90
2019-05-06T20:47:52.549Z,3.30
2019-05-06T20:48:52.965Z,3.80
2019-05-06T20:49:52.597Z,2.40
2019-05-06T20:50:52.344Z,2.40
2019-05-06T20:51:52.167Z,4.00
2019-05-06T20:52:51.978Z,1.60
2019-05-06T20:53:51.122Z,2.10
2019-05-06T20:54:51.154Z,2.00
2019-05-06T20:55:53.029Z,2.10
2019-05-06T20:56:53.050Z,2.10
2019-05-06T20:57:52.907Z,1.80
2019-05-06T20:58:52.861Z,2.00
2019-05-06T21:00:06.970Z,2.10
2019-05-06T21:00:52.154Z,1.90
2019-05-06T21:01:51.956Z,2.10
2019-05-06T21:02:53.310Z,1.50
2019-05-06T21:03:52.899Z,1.70
2019-05-06T21:04:51.003Z,1.40
2019-05-06T21:05:51.006Z,2.00
2019-05-06T21:06:50.978Z,2.70
2019-05-06T21:07:52.584Z,1.60
2019-05-06T21:08:52.937Z,1.70
2019-05-06T21:09:52.550Z,1.80
2019-05-06T21:10:52.768Z,2.30
2019-05-06T21:11:52.776Z,1.80
2019-05-06T21:12:52.985Z,1.60
2019-05-06T21:13:50.910Z,3.70
2019-05-06T21:14:50.891Z,1.80
2019-05-06T21:15:50.886Z,2.80
2019-05-06T21:16:50.870Z,3.10
2019-05-06T21:17:50.893Z,3.70
2019-05-06T21:18:52.106Z,2.10
2019-05-06T21:19:51.918Z,2.30
2019-05-06T21:20:50.831Z,3.20
2019-05-06T21:21:52.740Z,19.30
2019-05-06T21:22:52.789Z,22.60
2019-05-06T21:23:52.403Z,10.00
2019-05-06T21:24:51.457Z,2.70
2019-05-06T21:25:52.369Z,3.00
2019-05-06T21:26:52.976Z,4.00
2019-05-06T21:27:53.075Z,2.00
2019-05-06T21:28:52.284Z,2.60
2019-05-06T21:29:52.337Z,1.70
2019-05-06T21:31:03.269Z,3.80
2019-05-06T21:31:52.947Z,2.70
2019-05-06T21:32:52.103Z,2.90
2019-05-06T21:33:52.223Z,2.40
2019-05-06T21:34:52.488Z,2.00
2019-05-06T21:35:52.281Z,1.50
2019-05-06T21:36:53.067Z,3.40
2019-05-06T21:37:52.834Z,2.20
2019-05-06T21:38:52.390Z,2.40
2019-05-06T21:39:52.929Z,1.60
2019-05-06T21:40:52.520Z,1.90
2019-05-06T21:41:52.141Z,2.40
2019-05-06T21:42:50.586Z,2.50
2019-05-06T21:43:50.577Z,2.20
2019-05-06T21:44:52.246Z,3.50
2019-05-06T21:45:50.545Z,2.40
2019-05-06T21:46:50.625Z,2.70
2019-05-06T21:47:52.845Z,3.00
2019-05-06T21:48:52.787Z,3.30
2019-05-06T21:49:52.770Z,1.60
2019-05-06T21:50:52.209Z,2.30
2019-05-06T21:51:50.486Z,1.90
2019-05-06T21:52:50.512Z,2.80
2019-05-06T21:53:50.461Z,1.90
2019-05-06T21:54:52.429Z,2.10
2019-05-06T21:55:52.349Z,2.90
2019-05-06T21:56:50.424Z,2.60
2019-05-06T21:57:50.425Z,2.00
2019-05-06T21:58:52.413Z,2.50
2019-05-06T21:59:52.374Z,3.10
2019-05-06T22:00:52.566Z,2.90
2019-05-06T22:02:02.542Z,3.10
2019-05-06T22:02:50.367Z,2.50
2019-05-06T22:03:50.353Z,2.90
2019-05-06T22:04:52.329Z,2.10
2019-05-06T22:05:54.350Z,2.10
2019-05-06T22:06:52.408Z,2.30
2019-05-06T22:07:52.196Z,3.90
2019-05-06T22:08:51.877Z,1.90
2019-05-06T22:09:52.752Z,4.00
2019-05-06T22:10:50.308Z,2.20
2019-05-06T22:11:50.261Z,2.10
2019-05-06T22:12:52.569Z,2.20
2019-05-06T22:13:58.960Z,2.60
2019-05-06T22:14:52.995Z,2.10
2019-05-06T22:15:50.219Z,2.80
2019-05-06T22:16:50.208Z,2.90
2019-05-06T22:17:50.199Z,2.20
2019-05-06T22:18:52.694Z,2.70
2019-05-06T22:19:52.294Z,2.60
2019-05-06T22:20:51.868Z,2.60
2019-05-06T22:21:52.175Z,2.90
2019-05-06T22:22:51.985Z,3.00
2019-05-06T22:23:50.148Z,2.80
2019-05-06T22:24:55.534Z,2.10
2019-05-06T22:25:51.142Z,3.70
2019-05-06T22:26:51.971Z,2.70
2019-05-06T22:27:51.920Z,2.60
2019-05-06T22:28:52.299Z,2.70
2019-05-06T22:29:52.070Z,2.50
2019-05-06T22:30:51.950Z,2.10
2019-05-06T22:31:51.856Z,2.70
2019-05-06T22:33:03.647Z,2.80
2019-05-06T22:33:50.032Z,2.20
2019-05-06T22:34:50.017Z,2.50
2019-05-06T22:35:52.024Z,2.90
2019-05-06T22:36:51.920Z,2.90
2019-05-06T22:37:49.985Z,3.40
2019-05-06T22:38:49.957Z,2.10
2019-05-06T22:39:52.551Z,4.30
2019-05-06T22:40:49.968Z,3.60
2019-05-06T22:41:51.485Z,2.60
2019-05-06T22:42:49.950Z,2.70
2019-05-06T22:43:49.908Z,2.20
2019-05-06T22:44:49.910Z,2.90
2019-05-06T22:45:49.899Z,2.60
2019-05-06T22:46:49.895Z,3.10
2019-05-06T22:47:49.952Z,3.30
2019-05-06T22:48:49.859Z,2.90
2019-05-06T22:49:49.842Z,2.50
2019-05-06T22:50:49.830Z,2.40
2019-05-06T22:51:52.045Z,2.60
2019-05-06T22:52:49.802Z,2.80
2019-05-06T22:53:49.853Z,2.50
2019-05-06T22:54:49.820Z,2.50
2019-05-06T22:55:49.777Z,2.20
2019-05-06T22:56:49.768Z,3.60
2019-05-06T22:57:49.752Z,2.50
2019-05-06T22:58:49.734Z,2.50
2019-05-06T22:59:49.723Z,2.80
2019-05-06T23:00:49.752Z,2.50
2019-05-06T23:01:49.709Z,2.70
2019-05-06T23:02:49.695Z,5.60
2019-05-06T23:04:03.027Z,2.60
2019-05-06T23:04:49.718Z,5.20
2019-05-06T23:05:49.680Z,4.20
2019-05-06T23:06:49.712Z,3.30
2019-05-06T23:07:49.641Z,2.60
2019-05-06T23:08:49.638Z,4.50
2019-05-06T23:09:49.625Z,2.70
2019-05-06T23:10:49.607Z,3.50
2019-05-06T23:11:49.603Z,3.90
2019-05-06T23:12:49.602Z,3.00
2019-05-06T23:13:49.572Z,3.70
2019-05-06T23:14:49.574Z,3.30
2019-05-06T23:15:49.554Z,2.50
2019-05-06T23:16:49.536Z,3.20
2019-05-06T23:17:49.609Z,3.50
2019-05-06T23:18:49.568Z,3.10
2019-05-06T23:19:49.509Z,6.10
2019-05-06T23:20:49.495Z,2.50
2019-05-06T23:21:49.494Z,3.50
2019-05-06T23:22:49.471Z,3.10
2019-05-06T23:23:49.511Z,3.10
2019-05-06T23:24:49.454Z,2.20
2019-05-06T23:25:49.437Z,3.40
2019-05-06T23:26:49.438Z,2.10
2019-05-06T23:27:49.428Z,2.10
2019-05-06T23:28:49.406Z,2.40
2019-05-06T23:29:49.407Z,2.10
2019-05-06T23:30:49.386Z,2.30
2019-05-06T23:31:49.375Z,2.40
2019-05-06T23:32:49.362Z,2.20
2019-05-06T23:33:49.480Z,2.40
2019-05-06T23:35:03.303Z,2.20
2019-05-06T23:35:49.340Z,2.20
2019-05-06T23:36:49.319Z,3.20
2019-05-06T23:37:49.316Z,3.80
2019-05-06T23:38:49.316Z,2.20
2019-05-06T23:39:50.088Z,2.10
2019-05-06T23:40:49.323Z,2.40
2019-05-06T23:41:49.269Z,3.10
2019-05-06T23:42:49.254Z,2.20
2019-05-06T23:43:49.249Z,2.00
2019-05-06T23:44:49.230Z,2.30
2019-05-06T23:45:49.219Z,3.40
2019-05-06T23:46:49.280Z,2.90
2019-05-06T23:47:49.195Z,2.80